Southern Pines, North Carolina
Current Conditions -  °F | °C
As of 11:35 AM on Saturday 22 Nov 2014 (Local Time) from KSOP Reporting Station
Clear Clear  
Wind Chill: 44°   Ceiling: Unl
Heat Index: 46°   Visibility: 10mi
Dew Point: 14°   Wind: 5mph
Humidity: 27%   Direction: 240°WSW
Pressure: 30.53"   Gusts: NA
Location:  35.17°N, 79.39°W
Report Text: KSOP 221635Z AUTO 24004KT 10SM CLR 08/M10 A3053 RMK AO1
Loading
Personal Weather Stations






























Interactive Weather Map New forecast layout! Learn more

10-Day Weather Forecast

Advertisements
Track Severe Weather on mobile